Aeroporto :
LOGIN :

Iscrizione | Disclaimer

   EN    FR    IT 

 










Sommario :    VFR   VFR Marginale   IFR   IFR Intensivo   IFR Molto Intensivo
Visibilità : 
Base nubi : 
>= 8 km
>= 3000ft
5 / 8 km
1000 / 3000 ft
1500m / 5 km
500 / 1000 ft
800 / 1500m
200 / 500 ft
< 800m
< 200 ft
Simboli :   Temporali  Nebbia  Neve Forte  Precipitazioni Forti  Vento > 20 kt
SIGMETs :   Varie  Temporali  Ghiacco  Turbolenza  Onda orograficha  Ceneri Vulcaniche







- Altitudine del aeroporto : 309 ft
- Codice IATA : FNI
- Carte del aeroporto


LFTW - Nîmes Garons

ULTIMO METAR :
  • 261600Z AUTO 02020G31KT 360V060 CAVOK 15/M02 Q1019 TEMPO 36030G45KT

METARs OBSOLETI :
  • 261530Z AUTO 01019G32KT 340V050 CAVOK 15/M02 Q1020 TEMPO 36030G45KT
  • 261500Z AUTO 03021G33KT 350V050 CAVOK 15/M03 Q1020 TEMPO 36030G45KT
  • 261430Z AUTO 01024G37KT CAVOK 15/M02 Q1020 NOSIG
  • 261400Z AUTO 02023G39KT CAVOK 15/M02 Q1020 NOSIG
  • 261330Z AUTO 03022G35KT CAVOK 14/M02 Q1020 TEMPO 36030G45KT
  • 261300Z AUTO 02026G36KT 350V050 CAVOK 14/M03 Q1019 NOSIG

TAF TAF LFTW
Valido dal 26 a 15 ore il 27 a 15 ore UTC


261400Z 2615/2715 35025G35KT CAVOK
PROB40
TEMPO 2615/2617 36030G45KT
BECMG 2620/2622 35015KT
Nessun NOTAM noto per questo aeroporto.
9 SIGMETs conosciuti per la FIR Marseille (LFMM) :
 
Turbolenza severa
LFMM SIGMET 9 VALID 261200/261600 LFPW
LFMM MARSEILLE FIR/UIR SEV TURB FCST WI N4200 E00400 - N4215 E00230 - N4530 E00300 - N4500 E00545 - N4200 E00400 SFC/FL070 STNR WKN=
Turbolenza severa
LFMM SIGMET 17 VALID 261600/262000 LFPW
LFMM MARSEILLE FIR/UIR SEV TURB FCST WI N4115 E00930 - N4115 E00900 - N4230 E00830 - N4230 E00845 - N4115 E00930 SFC/FL090 STNR WKN=
Turbolenza severa
LFMM SIGMET 16 VALID 261600/262000 LFPW
LFMM MARSEILLE FIR/UIR SEV TURB FCST S OF N4245 AND W OF E00315 SFC/FL070 STNR WKN=
Turbolenza severa
LFMM SIGMET 15 VALID 261600/262000 LFPW
LFMM MARSEILLE FIR/UIR SEV TURB FCST WI N4445 E00700 - N4400 E00700 - N4345 E00745 - N4400 E00615 - N4445 E00600 - N4445 E00700 SFC/FL120 STNR WKN=
Turbolenza severa
LFMM SIGMET 14 VALID 261600/262000 LFPW
LFMM MARSEILLE FIR/UIR SEV TURB FCST WI N4400 E00500 - N4345 E00300 - N4500 E00330 - N4500 E00530 - N4400 E00500 SFC/FL070 STNR WKN=
Forte onda orograficha
LFMM SIGMET 13 VALID 261500/261800 LFPW
LFMM MARSEILLE FIR/UIR SEV MTW FCST WI N4545 E00700 - N4415 E00700 - N4400 E00530 - N4445 E00515 - N4545 E00700 FL320/400 STNR WKN=
Forte onda orograficha
LFMM SIGMET 12 VALID 261500/261700 LFPW
LFMM MARSEILLE FIR/UIR SEV MTW FCST WI N4200 E00430 - N4215 E00230 - N4245 E00230 - N4230 E00430 - N4200 E00430 FL300/380 STNR WKN=
Turbolenza severa
LFMM SIGMET 11 VALID 261200/261600 LFPW
LFMM MARSEILLE FIR/UIR SEV TURB FCST WI N4115 E00930 - N4115 E00900 - N4230 E00830 - N4300 E00930 - N4115 E00930 SFC/FL090 STNR NC=
Turbolenza severa
LFMM SIGMET 10 VALID 261200/261600 LFPW
LFMM MARSEILLE FIR/UIR SEV TURB FCST WI N4545 E00700 - N4400 E00700 - N4345 E00815 - N4330 E00600 - N4500 E00600 - N4545 E00700 SFC/FL140 STNR NC=



MetMap, La meteo Aeronautica in un colpo d'occhio ! - Copyright ORBIFLY Dicembre 2007 - Disclaimer

ORBIFLY MET'MAP TEAM :

Programmazione e sviluppo : Alexandra Zaïnal
Concezione e sviluppo : Baudouin d'Aumeries
Co-Programmazione e sviluppo : Marc-Olivier Méhu
Supporto tecnico e logistico : Manuel Goepfert
Aiuto per la traduzione : Arnaldo La Scala

Contatto : metmap@orbifly.com




FONTI E CREDITI :

   NOAA